Time;durP1;ratioP1;P1;durP2;ratioP2;P2;SDS_P1;SDS_P2;PMS_P1;PMS_P2;Temp;Humidity;BMP_temperature;BMP_pressure;BME280_temperature;BME280_humidity;BME280_pressure;Samples;Min_cycle;Max_cycle;Signal;HPM_P1;HPM_P2
2022/04/16 00:02:02;;;;;;;72.13;14.57;;;12.20;99.90;;;;;;5032859;28;20029;-60
2022/04/16 00:04:29;;;;;;;193.68;17.33;;;12.20;99.90;;;;;;5034275;28;20380;-60
2022/04/16 00:06:56;;;;;;;83.38;14.48;;;12.00;99.90;;;;;;5034548;28;20037;-60
2022/04/16 00:09:21;;;;;;;124.63;17.67;;;12.10;99.90;;;;;;5030948;28;20040;-61
2022/04/16 00:11:48;;;;;;;142.73;16.45;;;12.00;99.90;;;;;;5034936;28;20471;-60
2022/04/16 00:14:15;;;;;;;89.25;15.00;;;12.00;99.90;;;;;;5033425;28;20025;-60
2022/04/16 00:16:41;;;;;;;174.20;16.58;;;12.00;99.90;;;;;;5034123;28;20514;-60
2022/04/16 00:19:09;;;;;;;81.97;15.98;;;12.00;99.90;;;;;;5034324;28;20507;-61
2022/04/16 00:21:35;;;;;;;76.15;14.00;;;12.00;99.90;;;;;;5032420;28;20200;-60
2022/04/16 00:24:01;;;;;;;84.82;13.27;;;12.10;99.90;;;;;;5031467;28;20029;-60
2022/04/16 00:26:28;;;;;;;82.43;13.50;;;11.90;99.90;;;;;;5068264;28;20183;-60
2022/04/16 00:28:53;;;;;;;29.00;11.77;;;11.90;99.90;;;;;;5033462;28;20482;-60
2022/04/16 00:31:19;;;;;;;97.97;13.73;;;11.90;99.90;;;;;;5034477;28;20036;-61
2022/04/16 00:33:48;;;;;;;47.25;12.57;;;11.80;99.90;;;;;;5033769;28;20539;-61
2022/04/16 00:36:14;;;;;;;26.33;12.02;;;11.90;99.90;;;;;;5012751;28;20022;-60
2022/04/16 00:38:41;;;;;;;25.30;10.73;;;11.90;99.90;;;;;;5036009;28;20030;-60
2022/04/16 00:41:06;;;;;;;20.50;10.98;;;11.90;99.90;;;;;;5032321;28;20458;-60
2022/04/16 00:43:33;;;;;;;26.45;10.63;;;12.00;99.90;;;;;;5036094;28;20120;-60
2022/04/16 00:45:59;;;;;;;34.55;10.60;;;12.00;99.90;;;;;;5038274;28;20033;-60
2022/04/16 00:48:26;;;;;;;41.53;10.85;;;12.00;99.90;;;;;;5034955;28;20083;-60
2022/04/16 00:50:53;;;;;;;80.47;12.20;;;11.90;99.90;;;;;;5037993;28;20457;-60
2022/04/16 00:53:20;;;;;;;52.47;11.57;;;11.90;99.90;;;;;;5038908;28;20025;-60
2022/04/16 00:55:46;;;;;;;105.32;13.27;;;11.90;99.90;;;;;;5037804;28;20079;-60
2022/04/16 00:58:12;;;;;;;123.15;13.10;;;11.80;99.90;;;;;;5037823;28;20029;-60
2022/04/16 01:00:37;;;;;;;35.40;11.02;;;11.70;99.90;;;;;;5035193;28;20162;-60
2022/04/16 01:03:04;;;;;;;152.23;13.73;;;11.80;99.90;;;;;;5034913;28;20044;-60
2022/04/16 01:05:30;;;;;;;110.38;13.00;;;11.80;99.90;;;;;;5039698;28;20444;-60
2022/04/16 01:07:58;;;;;;;47.22;12.40;;;11.70;99.90;;;;;;5037608;28;20022;-60
2022/04/16 01:10:29;;;;;;;25.10;10.98;;;11.70;99.90;;;;;;5037780;28;20029;-60
2022/04/16 01:13:00;;;;;;;21.92;10.60;;;11.60;99.90;;;;;;5037572;28;20561;-60
2022/04/16 01:15:29;;;;;;;130.85;12.57;;;11.70;99.90;;;;;;5033323;28;20052;-60
2022/04/16 01:17:56;;;;;;;21.23;10.85;;;11.60;99.90;;;;;;5036335;28;20045;-60
2022/04/16 01:20:23;;;;;;;15.88;10.77;;;11.60;99.90;;;;;;5037614;28;20103;-60
2022/04/16 01:22:50;;;;;;;35.60;12.77;;;11.70;99.90;;;;;;5037462;28;20036;-60
2022/04/16 01:25:17;;;;;;;56.03;11.70;;;11.70;99.90;;;;;;5037200;28;20046;-60
2022/04/16 01:27:43;;;;;;;136.13;11.65;;;11.50;99.90;;;;;;5036346;28;20025;-60
2022/04/16 01:30:14;;;;;;;140.48;14.50;;;11.50;99.90;;;;;;5033423;28;20482;-60
2022/04/16 01:32:42;;;;;;;46.28;10.68;;;11.40;99.90;;;;;;5039681;28;20017;-60
2022/04/16 01:35:10;;;;;;;101.00;11.70;;;11.40;99.90;;;;;;5037021;28;20033;-60
2022/04/16 01:37:37;;;;;;;266.58;14.90;;;11.30;99.90;;;;;;5036262;28;20057;-60
2022/04/16 01:40:05;;;;;;;105.88;12.48;;;11.30;99.90;;;;;;5035762;28;20087;-60
2022/04/16 01:42:32;;;;;;;97.05;12.45;;;11.20;99.90;;;;;;5033830;28;20083;-60
2022/04/16 01:45:02;;;;;;;104.50;12.85;;;11.20;99.90;;;;;;5033854;28;20025;-60
2022/04/16 01:47:28;;;;;;;65.13;10.57;;;11.20;99.90;;;;;;5035968;28;20051;-60
2022/04/16 01:49:55;;;;;;;168.80;12.35;;;11.30;99.90;;;;;;5036044;28;20033;-60
2022/04/16 01:52:23;;;;;;;88.95;14.57;;;11.30;99.90;;;;;;5035609;28;20560;-60
2022/04/16 01:54:51;;;;;;;290.20;19.60;;;11.30;99.90;;;;;;5033891;28;20459;-60
2022/04/16 01:57:20;;;;;;;65.35;11.85;;;11.20;99.90;;;;;;5029588;28;20021;-62
2022/04/16 01:59:46;;;;;;;75.53;10.88;;;11.30;99.90;;;;;;5036909;28;20072;-60
2022/04/16 02:02:13;;;;;;;43.20;11.40;;;11.20;99.90;;;;;;5035972;28;20029;-60
2022/04/16 02:04:38;;;;;;;99.53;14.82;;;11.30;99.90;;;;;;5035382;28;20099;-60
2022/04/16 02:07:04;;;;;;;34.20;12.05;;;11.30;99.90;;;;;;5035491;28;20024;-62
2022/04/16 02:09:30;;;;;;;29.95;11.35;;;11.30;99.90;;;;;;5033080;28;20025;-59
2022/04/16 02:11:56;;;;;;;81.13;13.65;;;11.30;99.90;;;;;;5033970;28;20040;-60
2022/04/16 02:14:22;;;;;;;43.80;11.00;;;11.30;99.90;;;;;;5036856;28;20427;-60
2022/04/16 02:16:48;;;;;;;35.95;10.75;;;11.20;99.90;;;;;;5033936;28;20030;-60
2022/04/16 02:19:14;;;;;;;58.75;9.95;;;11.30;99.90;;;;;;5033943;28;20103;-60
2022/04/16 02:21:44;;;;;;;39.70;9.10;;;11.30;99.90;;;;;;5034632;28;20037;-60
2022/04/16 02:24:10;;;;;;;31.10;8.45;;;11.20;99.90;;;;;;5031125;28;20045;-63
2022/04/16 02:26:37;;;;;;;60.08;9.40;;;11.30;99.90;;;;;;5037208;28;20567;-61
2022/04/16 02:29:04;;;;;;;59.10;8.70;;;11.30;99.90;;;;;;5035181;28;20397;-60
2022/04/16 02:31:30;;;;;;;36.50;8.52;;;11.30;99.90;;;;;;5035024;28;20040;-60
2022/04/16 02:33:55;;;;;;;16.23;8.15;;;11.30;99.90;;;;;;5033656;28;20021;-60
2022/04/16 02:36:27;;;;;;;32.13;9.90;;;11.30;99.90;;;;;;4980111;28;1451833;-60
2022/04/16 02:38:56;;;;;;;87.82;12.70;;;11.30;99.90;;;;;;5035300;28;20163;-60
2022/04/16 02:41:22;;;;;;;41.20;9.52;;;11.20;99.90;;;;;;5037285;28;20040;-60
2022/04/16 02:43:47;;;;;;;44.63;9.85;;;11.10;99.90;;;;;;5036175;28;20498;-60
2022/04/16 02:48:58;;;;;;;39.90;9.35;;;11.00;99.90;;;;;;5035964;28;20032;-61
2022/04/16 02:51:24;;;;;;;40.67;11.48;;;10.90;99.90;;;;;;5032479;28;20025;-60
2022/04/16 02:53:50;;;;;;;61.65;10.80;;;11.00;99.90;;;;;;5035916;28;20578;-60
2022/04/16 02:56:17;;;;;;;75.13;12.18;;;11.00;99.90;;;;;;5036561;28;20057;-60
2022/04/16 02:58:43;;;;;;;86.38;12.73;;;11.00;99.90;;;;;;5035589;28;20033;-60
2022/04/16 03:01:08;;;;;;;50.63;12.10;;;11.00;99.90;;;;;;5035698;28;20524;-61
2022/04/16 03:03:34;;;;;;;44.13;13.45;;;11.00;99.90;;;;;;5034293;28;20433;-60
2022/04/16 03:06:00;;;;;;;27.75;10.40;;;11.10;99.90;;;;;;5032040;28;20071;-60
2022/04/16 03:08:26;;;;;;;44.63;10.88;;;11.10;99.90;;;;;;5035148;28;20061;-60
2022/04/16 03:10:52;;;;;;;43.35;12.40;;;11.10;99.90;;;;;;5035452;28;20056;-60
2022/04/16 03:13:19;;;;;;;57.35;10.45;;;11.00;99.90;;;;;;5034036;28;20079;-60
2022/04/16 03:18:29;;;;;;;53.92;11.20;;;10.90;99.90;;;;;;5018937;28;20052;-60
2022/04/16 03:20:57;;;;;;;56.25;12.82;;;11.00;99.90;;;;;;5034116;28;20048;-60
2022/04/16 03:23:23;;;;;;;52.17;11.35;;;11.00;99.90;;;;;;5036453;28;20022;-60
2022/04/16 03:25:49;;;;;;;21.77;10.57;;;11.00;99.90;;;;;;5035332;28;20029;-60
2022/04/16 03:28:15;;;;;;;37.92;9.93;;;11.00;99.90;;;;;;5035177;28;20100;-60
2022/04/16 03:30:41;;;;;;;47.15;10.77;;;11.00;99.90;;;;;;5034069;28;20437;-60
2022/04/16 03:33:08;;;;;;;66.05;9.98;;;11.00;99.90;;;;;;5031657;28;20121;-61
2022/04/16 03:35:35;;;;;;;77.97;9.30;;;11.00;99.90;;;;;;5037236;28;20050;-60
2022/04/16 03:38:01;;;;;;;58.60;10.32;;;11.00;99.90;;;;;;5034321;28;20049;-60
2022/04/16 03:40:27;;;;;;;47.83;10.35;;;11.00;99.90;;;;;;5034908;28;20479;-60
2022/04/16 03:42:59;;;;;;;49.47;9.48;;;11.00;99.90;;;;;;5034869;28;20032;-60
2022/04/16 03:45:30;;;;;;;37.63;9.88;;;11.00;99.90;;;;;;5031652;28;20117;-60
2022/04/16 03:47:58;;;;;;;48.40;10.35;;;11.00;99.90;;;;;;5034026;28;20063;-60
2022/04/16 03:50:25;;;;;;;52.10;8.38;;;11.10;99.90;;;;;;5036493;28;20065;-60
2022/04/16 03:52:52;;;;;;;36.53;9.57;;;11.10;99.90;;;;;;5033191;28;20025;-61
2022/04/16 04:00:50;;;;;;;55.10;12.50;;;11.00;99.90;;;;;;5034833;28;20113;-60
2022/04/16 04:03:16;;;;;;;24.33;9.63;;;11.10;99.90;;;;;;5030206;28;20447;-60
2022/04/16 04:05:45;;;;;;;52.65;12.02;;;11.00;99.90;;;;;;5043163;28;20037;-60
2022/04/16 04:08:11;;;;;;;83.35;10.98;;;11.00;99.90;;;;;;5034870;28;20120;-60
2022/04/16 04:10:38;;;;;;;89.82;11.98;;;11.00;99.90;;;;;;5034435;28;20091;-60
2022/04/16 04:13:04;;;;;;;84.03;11.45;;;10.90;99.90;;;;;;5034785;28;20044;-60
2022/04/16 04:15:29;;;;;;;112.00;14.18;;;10.90;99.90;;;;;;5032029;28;20048;-60
2022/04/16 04:17:56;;;;;;;40.65;13.18;;;10.90;99.90;;;;;;5033168;28;20022;-60
2022/04/16 04:20:22;;;;;;;63.08;11.95;;;10.90;99.90;;;;;;5035647;28;20244;-60
2022/04/16 04:22:48;;;;;;;186.80;18.38;;;11.00;99.90;;;;;;5034393;28;20410;-60
2022/04/16 04:25:13;;;;;;;153.45;16.35;;;11.00;99.90;;;;;;5034251;28;20033;-60
2022/04/16 04:27:39;;;;;;;110.43;14.70;;;11.00;99.90;;;;;;5033663;28;20025;-60
2022/04/16 04:30:05;;;;;;;62.00;11.07;;;11.00;99.90;;;;;;5030894;28;20042;-61
2022/04/16 04:32:31;;;;;;;73.75;14.48;;;11.10;99.90;;;;;;5034825;28;20470;-60
2022/04/16 04:34:57;;;;;;;97.97;11.65;;;11.10;99.90;;;;;;5031127;28;20036;-60
2022/04/16 04:37:23;;;;;;;91.68;11.00;;;11.10;99.90;;;;;;5034227;28;20041;-60
2022/04/16 04:39:50;;;;;;;134.15;12.18;;;11.00;99.90;;;;;;5034180;28;20029;-60
2022/04/16 04:42:29;;;;;;;32.85;10.23;;;10.90;99.90;;;;;;5029916;28;20018;-60
2022/04/16 04:44:55;;;;;;;35.88;9.30;;;11.00;99.90;;;;;;5032702;28;20038;-61
2022/04/16 04:47:21;;;;;;;80.88;11.82;;;11.10;99.90;;;;;;5035398;28;20033;-60
2022/04/16 04:49:47;;;;;;;32.83;9.30;;;11.20;99.90;;;;;;5033732;28;20037;-60
2022/04/16 04:52:35;;;;;;;169.48;15.82;;;11.10;99.90;;;;;;5033962;28;20511;-60
2022/04/16 04:55:00;;;;;;;48.83;9.43;;;11.20;99.90;;;;;;5017688;28;20429;-60
2022/04/16 04:57:27;;;;;;;26.65;8.80;;;11.10;99.90;;;;;;5031210;28;20032;-61
2022/04/16 04:59:53;;;;;;;59.90;12.30;;;11.10;99.90;;;;;;5032329;28;20398;-61
2022/04/16 05:02:20;;;;;;;80.10;15.50;;;11.10;99.90;;;;;;5035087;28;20022;-60
2022/04/16 05:04:46;;;;;;;87.63;15.73;;;11.10;99.90;;;;;;5032256;28;20033;-61
2022/04/16 05:07:12;;;;;;;39.83;11.68;;;11.00;99.90;;;;;;5034158;28;20547;-60
2022/04/16 05:09:38;;;;;;;11.73;9.23;;;11.10;99.90;;;;;;5031370;28;20025;-60
2022/04/16 05:12:04;;;;;;;35.67;10.30;;;11.10;99.90;;;;;;5031002;28;20042;-60
2022/04/16 05:14:31;;;;;;;60.47;11.40;;;11.00;99.90;;;;;;5034261;28;20025;-60
2022/04/16 05:16:57;;;;;;;45.15;10.63;;;11.00;99.90;;;;;;5034227;28;20029;-60
2022/04/16 05:19:23;;;;;;;132.20;11.73;;;11.00;99.90;;;;;;5033332;28;20516;-60
2022/04/16 05:21:49;;;;;;;69.10;8.93;;;10.90;99.90;;;;;;5030915;28;20029;-60
2022/04/16 05:24:14;;;;;;;40.15;8.70;;;10.90;99.90;;;;;;5029550;28;20106;-61
2022/04/16 05:26:40;;;;;;;86.40;11.55;;;11.00;99.90;;;;;;5035470;28;20045;-60
2022/04/16 05:29:07;;;;;;;50.83;10.00;;;11.00;99.90;;;;;;5035315;28;20049;-60
2022/04/16 05:31:33;;;;;;;38.55;9.57;;;11.00;99.90;;;;;;5036937;28;20034;-58
2022/04/16 05:36:48;;;;;;;147.20;11.77;;;10.90;99.90;;;;;;5036587;28;20144;-58
2022/04/16 05:39:14;;;;;;;92.53;10.45;;;10.90;99.90;;;;;;5048822;28;20076;-59
2022/04/16 05:41:42;;;;;;;165.02;12.93;;;10.80;99.90;;;;;;5038471;28;20030;-59
2022/04/16 05:44:08;;;;;;;236.73;15.02;;;10.80;99.90;;;;;;5036615;28;20116;-60
2022/04/16 05:46:34;;;;;;;214.40;12.23;;;10.80;99.90;;;;;;5036255;28;20136;-59
2022/04/16 05:48:59;;;;;;;117.75;10.30;;;10.80;99.90;;;;;;5034856;28;20478;-58
2022/04/16 05:51:27;;;;;;;76.43;9.35;;;10.80;99.90;;;;;;5032285;28;20026;-57
2022/04/16 05:53:53;;;;;;;135.57;11.20;;;10.80;99.90;;;;;;5034975;28;20029;-59
2022/04/16 05:56:21;;;;;;;214.43;13.57;;;10.80;99.90;;;;;;5038240;28;20032;-58
2022/04/16 05:58:46;;;;;;;182.30;11.98;;;10.80;99.90;;;;;;5036742;28;20029;-58
2022/04/16 06:01:13;;;;;;;89.72;10.20;;;10.80;99.90;;;;;;5036400;28;20495;-59
2022/04/16 06:03:40;;;;;;;108.15;11.40;;;10.80;99.90;;;;;;5034986;28;20017;-58
2022/04/16 06:06:09;;;;;;;124.82;10.07;;;10.80;99.90;;;;;;5032858;28;20074;-58
2022/04/16 06:08:38;;;;;;;96.60;9.15;;;10.90;99.90;;;;;;5037804;28;20409;-59
2022/04/16 06:11:04;;;;;;;104.72;10.90;;;10.80;99.90;;;;;;5036506;28;20482;-58
2022/04/16 06:13:31;;;;;;;94.30;9.77;;;10.80;99.90;;;;;;5036291;28;20033;-58
2022/04/16 06:15:57;;;;;;;85.72;9.13;;;10.80;99.90;;;;;;5036159;28;20422;-57
2022/04/16 06:18:23;;;;;;;74.47;10.65;;;11.00;99.90;;;;;;5032843;28;20025;-59
2022/04/16 06:20:49;;;;;;;39.33;8.57;;;11.10;99.90;;;;;;5036438;28;20025;-59
2022/04/16 06:23:14;;;;;;;114.32;10.25;;;11.10;99.90;;;;;;5036610;28;20034;-59
2022/04/16 06:25:40;;;;;;;59.80;8.85;;;11.10;99.90;;;;;;5035891;28;20445;-59
2022/04/16 06:28:06;;;;;;;73.35;9.13;;;11.30;99.90;;;;;;5034205;28;20050;-59
2022/04/16 06:30:32;;;;;;;61.83;8.75;;;11.20;99.90;;;;;;5032470;28;20500;-59
2022/04/16 06:32:58;;;;;;;39.38;7.80;;;11.30;99.90;;;;;;5034238;28;20104;-59
2022/04/16 06:35:24;;;;;;;31.35;8.43;;;11.40;99.90;;;;;;5037465;28;20173;-59
2022/04/16 06:37:50;;;;;;;42.08;8.57;;;11.50;99.90;;;;;;5035684;28;20132;-59
2022/04/16 06:40:16;;;;;;;47.22;7.97;;;11.50;99.90;;;;;;5034642;28;20501;-60
2022/04/16 06:42:42;;;;;;;21.38;8.05;;;11.60;99.90;;;;;;5034903;28;20025;-60
2022/04/16 06:45:09;;;;;;;50.80;8.38;;;11.50;99.90;;;;;;5031711;28;20095;-59
2022/04/16 06:47:36;;;;;;;35.13;7.57;;;11.60;99.90;;;;;;5037876;28;20056;-59
2022/04/16 06:50:03;;;;;;;16.67;7.85;;;11.60;99.90;;;;;;5035660;28;20033;-59
2022/04/16 06:52:29;;;;;;;17.05;8.70;;;11.70;99.90;;;;;;5035486;28;20108;-59
2022/04/16 06:54:58;;;;;;;11.75;7.88;;;11.90;99.90;;;;;;5035681;28;20108;-60
2022/04/16 06:57:25;;;;;;;10.90;7.90;;;12.00;99.90;;;;;;5032215;28;20030;-60
2022/04/16 06:59:51;;;;;;;14.07;7.50;;;12.00;99.90;;;;;;5035317;28;20026;-60
2022/04/16 07:02:17;;;;;;;10.20;7.13;;;12.20;99.90;;;;;;5036346;28;20029;-59
2022/04/16 07:04:42;;;;;;;18.25;7.70;;;12.90;99.90;;;;;;5035441;28;20091;-59
2022/04/16 07:07:08;;;;;;;11.80;6.93;;;13.50;99.90;;;;;;5034122;28;20124;-60
2022/04/16 07:09:38;;;;;;;8.27;6.40;;;13.50;99.90;;;;;;5032152;28;20028;-59
2022/04/16 07:12:09;;;;;;;9.57;7.30;;;13.80;99.90;;;;;;5032118;28;20502;-60
2022/04/16 07:14:38;;;;;;;7.95;7.00;;;14.20;99.90;;;;;;5036819;28;20032;-60
2022/04/16 07:17:05;;;;;;;7.65;6.85;;;13.80;99.90;;;;;;5035428;28;20159;-59
2022/04/16 07:19:32;;;;;;;7.47;6.78;;;14.20;99.90;;;;;;5035027;28;20038;-60
2022/04/16 07:21:58;;;;;;;8.68;6.68;;;14.30;99.90;;;;;;5035014;28;20394;-59
2022/04/16 07:24:27;;;;;;;8.02;6.72;;;14.20;99.90;;;;;;5031900;28;20111;-60
2022/04/16 07:26:56;;;;;;;8.05;7.25;;;14.20;99.90;;;;;;5034320;28;20511;-59
2022/04/16 07:29:23;;;;;;;8.35;7.50;;;14.10;99.90;;;;;;5036271;28;20079;-60
2022/04/16 07:31:49;;;;;;;8.70;7.60;;;13.90;99.90;;;;;;5034813;28;20042;-60
2022/04/16 07:34:15;;;;;;;8.45;7.65;;;14.30;99.90;;;;;;5034825;28;20096;-59
2022/04/16 07:36:42;;;;;;;8.63;7.78;;;14.20;99.90;;;;;;5034192;28;20048;-59
2022/04/16 07:39:08;;;;;;;8.38;7.68;;;13.80;99.90;;;;;;5031199;28;20053;-60
2022/04/16 07:41:33;;;;;;;8.93;8.13;;;13.70;99.90;;;;;;5036537;28;20057;-59
2022/04/16 07:44:03;;;;;;;8.80;8.00;;;13.40;99.90;;;;;;5034276;28;20400;-60
2022/04/16 07:46:30;;;;;;;7.35;6.75;;;14.00;99.90;;;;;;5033043;28;20045;-60
2022/04/16 07:48:59;;;;;;;7.57;6.90;;;18.40;99.90;;;;;;5033200;28;20108;-59
2022/04/16 07:51:26;;;;;;;6.93;6.22;;;21.40;99.90;;;;;;5031643;28;20037;-60
2022/04/16 07:53:53;;;;;;;7.35;6.70;;;23.90;99.90;;;;;;5034518;28;20501;-59
2022/04/16 07:56:19;;;;;;;6.82;6.15;;;21.70;99.90;;;;;;5035412;28;20036;-60
2022/04/16 07:58:44;;;;;;;6.93;6.28;;;20.40;99.90;;;;;;5034113;28;20037;-60
2022/04/16 08:01:10;;;;;;;7.07;6.40;;;19.60;99.90;;;;;;5034427;28;20025;-59
2022/04/16 08:03:36;;;;;;;8.02;7.22;;;19.10;99.90;;;;;;5033360;28;20037;-60
2022/04/16 08:06:01;;;;;;;7.80;7.10;;;19.20;99.90;;;;;;5030295;28;20124;-60
2022/04/16 08:08:27;;;;;;;7.00;6.40;;;19.80;99.90;;;;;;5036207;28;20030;-60
2022/04/16 08:10:53;;;;;;;7.65;7.03;;;19.90;99.90;;;;;;5017783;28;20034;-60
2022/04/16 08:13:20;;;;;;;7.45;6.75;;;22.40;99.90;;;;;;5033956;28;20486;-60
2022/04/16 08:15:46;;;;;;;6.75;6.15;;;25.70;99.10;;;;;;5034431;28;20508;-60
2022/04/16 08:18:12;;;;;;;6.50;5.90;;;25.80;96.70;;;;;;5029683;28;20406;-60
2022/04/16 08:20:38;;;;;;;6.88;6.03;;;26.60;96.50;;;;;;5036799;28;20040;-60
2022/04/16 08:23:06;;;;;;;6.90;5.78;;;27.10;94.20;;;;;;5034377;28;20038;-61
2022/04/16 08:28:03;;;;;;;7.05;6.35;;;29.00;91.20;;;;;;5032163;28;20485;-61
2022/04/16 08:30:29;;;;;;;7.75;6.78;;;30.10;89.40;;;;;;5031738;28;20218;-61
2022/04/16 08:32:55;;;;;;;8.38;7.53;;;30.60;86.20;;;;;;5033272;28;20030;-61
2022/04/16 08:35:21;;;;;;;8.10;7.40;;;30.20;85.70;;;;;;5035157;28;20025;-61
2022/04/16 08:37:48;;;;;;;8.10;7.40;;;29.50;87.80;;;;;;5033803;28;20530;-61
2022/04/16 08:40:15;;;;;;;8.43;7.63;;;29.40;86.00;;;;;;5034262;28;20025;-61
2022/04/16 08:42:43;;;;;;;7.85;7.15;;;27.90;90.40;;;;;;5032734;28;20025;-61
2022/04/16 08:45:10;;;;;;;7.25;6.65;;;30.20;86.70;;;;;;5030212;28;20043;-61
2022/04/16 08:47:38;;;;;;;6.88;6.18;;;30.20;85.20;;;;;;5036040;28;20025;-61
2022/04/16 08:50:06;;;;;;;7.28;6.57;;;29.60;86.60;;;;;;5033945;28;20124;-61
2022/04/16 08:52:34;;;;;;;6.70;6.07;;;28.40;89.10;;;;;;5034286;28;20394;-61
2022/04/16 08:55:02;;;;;;;6.13;5.63;;;28.80;88.10;;;;;;5033794;28;20029;-62
2022/04/16 08:57:28;;;;;;;7.35;6.63;;;28.30;88.60;;;;;;5030644;28;20071;-61
2022/04/16 08:59:57;;;;;;;6.75;6.03;;;29.20;87.70;;;;;;5033235;28;20470;-61
2022/04/16 09:02:25;;;;;;;6.85;6.25;;;30.30;86.60;;;;;;5035252;28;20546;-61
2022/04/16 09:05:10;;;;;;;6.25;5.65;;;30.30;83.40;;;;;;5034940;28;20037;-61
2022/04/16 09:07:46;;;;;;;6.18;5.57;;;30.50;84.10;;;;;;5036116;28;20036;-61
2022/04/16 09:10:12;;;;;;;6.68;6.07;;;31.00;84.80;;;;;;5037289;28;20024;-61
2022/04/16 09:12:39;;;;;;;5.70;5.20;;;30.80;81.30;;;;;;5036709;28;20029;-61
2022/04/16 09:15:07;;;;;;;5.88;5.28;;;31.40;82.70;;;;;;5034444;28;20032;-62
2022/04/16 09:17:33;;;;;;;5.75;5.25;;;31.30;81.10;;;;;;5039337;28;20422;-61
2022/04/16 09:19:58;;;;;;;5.15;4.70;;;30.60;83.70;;;;;;5037271;28;20041;-61
2022/04/16 09:22:31;;;;;;;6.20;5.60;;;30.40;83.90;;;;;;5037304;28;20020;-61
2022/04/16 09:24:57;;;;;;;5.95;5.45;;;30.70;85.20;;;;;;5037296;28;20036;-61
2022/04/16 09:27:23;;;;;;;5.43;5.03;;;30.30;84.40;;;;;;5033825;28;20021;-61
2022/04/16 09:29:48;;;;;;;16.48;14.82;;;31.30;82.70;;;;;;5038360;28;20018;-61
2022/04/16 09:32:24;;;;;;;20.60;18.38;;;32.10;81.20;;;;;;5036380;28;20043;-61
2022/04/16 09:34:54;;;;;;;6.45;5.80;;;31.60;82.90;;;;;;5037289;28;20026;-61
2022/04/16 09:37:23;;;;;;;10.82;9.82;;;31.90;82.30;;;;;;5036974;28;20053;-61
2022/04/16 09:39:49;;;;;;;10.10;9.18;;;31.40;83.30;;;;;;5036865;28;20051;-61
2022/04/16 09:42:28;;;;;;;6.57;5.97;;;31.10;84.00;;;;;;5032425;28;20515;-61
2022/04/16 09:44:54;;;;;;;5.55;5.07;;;31.20;82.90;;;;;;5048477;28;20025;-62
2022/04/16 09:47:24;;;;;;;5.65;4.85;;;31.80;79.20;;;;;;5036584;28;20030;-61
2022/04/16 09:49:53;;;;;;;5.68;4.78;;;32.30;78.70;;;;;;5035593;28;20051;-61
2022/04/16 09:52:22;;;;;;;4.93;4.45;;;31.80;79.70;;;;;;5036599;28;20026;-61
2022/04/16 09:54:51;;;;;;;6.70;6.10;;;30.40;80.10;;;;;;5036988;28;20444;-61
2022/04/16 09:57:21;;;;;;;4.82;4.38;;;30.80;82.20;;;;;;5016931;28;20025;-61
2022/04/16 09:59:52;;;;;;;5.85;4.43;;;31.90;80.40;;;;;;5038034;28;20061;-61
2022/04/16 10:02:19;;;;;;;4.80;3.85;;;32.10;79.10;;;;;;5036151;28;20053;-61
2022/04/16 10:04:46;;;;;;;5.70;4.00;;;31.80;81.60;;;;;;5036895;28;20480;-61
2022/04/16 10:07:13;;;;;;;4.60;4.20;;;31.90;82.10;;;;;;5036452;28;20030;-61
2022/04/16 10:09:41;;;;;;;5.47;4.97;;;31.80;84.50;;;;;;5034828;28;20098;-61
2022/04/16 10:15:00;;;;;;;4.68;4.28;;;;;;;;;;5045399;28;20036;-62
2022/04/16 10:17:32;;;;;;;5.47;4.53;;;28.90;91.30;;;;;;5038604;28;20044;-61
2022/04/16 10:20:09;;;;;;;6.07;4.70;;;30.10;88.40;;;;;;5034839;28;20049;-62
2022/04/16 10:22:35;;;;;;;6.07;4.88;;;30.90;85.90;;;;;;5034519;28;20037;-61
2022/04/16 10:25:02;;;;;;;5.07;4.45;;;30.30;85.30;;;;;;5034725;28;20041;-61
2022/04/16 10:27:32;;;;;;;5.72;5.15;;;29.50;86.40;;;;;;5033884;28;20026;-61
2022/04/16 10:30:09;;;;;;;5.25;4.75;;;30.30;86.70;;;;;;5034643;28;20114;-62
2022/04/16 10:32:42;;;;;;;5.88;4.80;;;30.40;84.50;;;;;;5037116;28;20112;-62
2022/04/16 10:35:17;;;;;;;6.00;3.80;;;30.60;86.00;;;;;;5035874;28;20558;-61
2022/04/16 10:37:50;;;;;;;6.55;3.50;;;29.90;84.70;;;;;;5035535;28;20051;-61
2022/04/16 10:40:20;;;;;;;3.67;3.30;;;29.40;83.90;;;;;;5034595;28;20079;-62
2022/04/16 10:42:48;;;;;;;4.43;3.15;;;29.80;85.80;;;;;;5035955;28;20287;-61
2022/04/16 10:45:14;;;;;;;6.65;3.67;;;29.90;84.00;;;;;;5031325;28;20042;-59
2022/04/16 10:47:41;;;;;;;5.10;3.70;;;29.00;84.00;;;;;;5037682;28;20094;-61
2022/04/16 10:50:11;;;;;;;3.28;2.70;;;28.50;85.10;;;;;;5035715;28;20033;-61
2022/04/16 10:52:37;;;;;;;4.78;2.72;;;28.30;81.00;;;;;;5035698;28;20394;-61
2022/04/16 10:55:07;;;;;;;6.32;2.38;;;27.90;77.70;;;;;;5035646;28;20036;-61
2022/04/16 10:57:33;;;;;;;4.78;2.25;;;29.60;73.60;;;;;;5033269;28;20036;-61
2022/04/16 11:00:12;;;;;;;4.72;2.10;;;29.10;73.10;;;;;;5034488;28;20090;-62
2022/04/16 11:02:38;;;;;;;3.63;2.00;;;27.00;71.70;;;;;;5037297;28;20059;-61
2022/04/16 11:05:09;;;;;;;3.17;1.80;;;25.90;75.00;;;;;;5033845;28;20034;-59
2022/04/16 11:07:40;;;;;;;2.65;1.98;;;26.40;73.10;;;;;;5034965;28;20056;-61
2022/04/16 11:10:09;;;;;;;3.90;1.58;;;26.50;74.60;;;;;;5035218;28;20025;-61
2022/04/16 11:12:41;;;;;;;4.10;1.80;;;25.60;74.50;;;;;;5033385;28;20406;-61
2022/04/16 11:15:24;;;;;;;4.63;1.60;;;25.60;73.50;;;;;;5031886;28;20033;-61
2022/04/16 11:17:57;;;;;;;3.78;1.38;;;25.80;72.30;;;;;;5045367;28;20482;-61
2022/04/16 11:20:23;;;;;;;2.50;1.52;;;26.40;74.70;;;;;;5036452;28;20029;-61
2022/04/16 11:22:49;;;;;;;3.83;1.63;;;25.80;73.70;;;;;;5034691;28;20037;-61
2022/04/16 11:25:15;;;;;;;5.20;1.90;;;26.40;73.90;;;;;;5035114;28;20040;-61
2022/04/16 11:36:04;;;;;;;3.25;1.67;;;26.90;78.10;;;;;;5044886;28;20032;-61
2022/04/16 11:38:33;;;;;;;2.67;1.73;;;27.00;73.30;;;;;;5035338;28;20068;-61
2022/04/16 11:41:01;;;;;;;3.20;2.00;;;25.90;74.00;;;;;;5033445;28;20041;-61
2022/04/16 11:43:30;;;;;;;4.00;1.50;;;25.40;76.50;;;;;;5033129;28;20605;-61
2022/04/16 11:46:01;;;;;;;3.75;2.00;;;25.20;78.90;;;;;;5034492;28;20041;-61
2022/04/16 11:48:30;;;;;;;4.18;1.80;;;24.70;78.30;;;;;;5031559;28;20044;-61
2022/04/16 11:50:56;;;;;;;7.03;1.58;;;24.70;79.10;;;;;;5033640;28;20429;-61
2022/04/16 11:53:22;;;;;;;2.17;1.10;;;24.40;78.10;;;;;;5035877;28;20026;-61
2022/04/16 11:55:50;;;;;;;4.35;2.03;;;24.30;79.20;;;;;;5034497;28;20123;-61
2022/04/16 11:58:16;;;;;;;3.80;2.10;;;24.30;89.70;;;;;;5034730;28;20037;-61
2022/04/16 12:00:48;;;;;;;3.47;2.17;;;26.00;90.10;;;;;;5033679;28;20020;-61
2022/04/16 12:03:14;;;;;;;2.88;1.70;;;26.10;89.70;;;;;;5030021;28;20038;-61
2022/04/16 12:05:42;;;;;;;3.08;1.80;;;26.80;84.30;;;;;;5036123;28;20510;-61
2022/04/16 12:08:10;;;;;;;4.28;1.90;;;26.70;85.80;;;;;;5034141;28;20091;-61
2022/04/16 12:10:37;;;;;;;5.50;2.20;;;27.30;88.90;;;;;;5034258;28;20079;-61
2022/04/16 12:13:11;;;;;;;5.63;2.15;;;26.50;88.50;;;;;;5034515;28;20033;-61
2022/04/16 12:15:46;;;;;;;6.93;2.08;;;26.70;86.80;;;;;;5032658;28;20485;-61
2022/04/16 12:18:20;;;;;;;4.18;2.13;;;26.50;87.70;;;;;;5028076;28;20382;-61
2022/04/16 12:20:48;;;;;;;3.78;2.20;;;26.40;87.40;;;;;;5043558;28;20063;-60
2022/04/16 12:23:24;;;;;;;5.75;2.30;;;26.70;90.00;;;;;;5034486;28;20574;-61
2022/04/16 12:25:50;;;;;;;6.82;2.40;;;26.60;90.00;;;;;;5034387;28;20041;-61
2022/04/16 12:28:16;;;;;;;4.30;2.60;;;26.10;89.20;;;;;;5034018;28;20018;-61
2022/04/16 12:30:50;;;;;;;5.28;2.42;;;25.80;90.30;;;;;;5032993;28;20406;-61
2022/04/16 12:33:16;;;;;;;6.82;3.20;;;25.80;90.90;;;;;;5045985;28;20057;-61
2022/04/16 12:35:47;;;;;;;4.55;2.70;;;25.10;91.90;;;;;;5034755;28;20029;-61
2022/04/16 12:38:17;;;;;;;6.43;2.70;;;25.40;93.40;;;;;;5035703;28;20100;-61
2022/04/16 12:40:44;;;;;;;6.15;2.40;;;25.80;91.70;;;;;;5037994;28;20436;-60
2022/04/16 12:43:10;;;;;;;4.47;2.33;;;25.70;92.10;;;;;;5038060;28;20029;-61
2022/04/16 12:45:36;;;;;;;3.85;2.13;;;26.20;91.60;;;;;;5036134;28;20084;-61
2022/04/16 12:48:03;;;;;;;4.35;2.20;;;26.80;92.00;;;;;;5035001;28;20025;-61
2022/04/16 12:50:33;;;;;;;5.72;2.95;;;26.20;90.80;;;;;;5040033;28;20034;-60
2022/04/16 12:53:02;;;;;;;4.97;2.60;;;26.10;91.90;;;;;;5037800;28;20506;-61
2022/04/16 12:55:31;;;;;;;5.35;2.60;;;26.80;91.30;;;;;;5038330;28;20067;-60
2022/04/16 12:57:57;;;;;;;5.03;2.60;;;27.00;91.10;;;;;;5036387;28;20048;-61
2022/04/16 13:00:23;;;;;;;6.60;2.60;;;26.40;91.20;;;;;;5032808;28;20034;-61
2022/04/16 13:02:49;;;;;;;3.65;2.45;;;25.70;91.80;;;;;;5038241;28;20515;-61
2022/04/16 13:05:16;;;;;;;8.35;3.22;;;25.70;92.60;;;;;;5036923;28;20041;-61